Time;durP1;ratioP1;P1;durP2;ratioP2;P2;SDS_P1;SDS_P2;PMS_P1;PMS_P2;Temp;Humidity;BMP_temperature;BMP_pressure;BME280_temperature;BME280_humidity;BME280_pressure;Samples;Min_cycle;Max_cycle;Signal;HPM_P1;HPM_P2
2022/02/07 00:02:14;;;;;;;1.17;0.50;;;4.20;99.90;;;;;;5075233;28;20207;-70
2022/02/07 00:04:45;;;;;;;0.40;0.40;;;4.10;99.90;;;;;;5075352;28;20234;-70
2022/02/07 00:07:16;;;;;;;0.30;0.30;;;4.10;99.90;;;;;;5075665;28;20230;-70
2022/02/07 00:09:43;;;;;;;0.40;0.30;;;4.10;99.90;;;;;;5075189;28;20210;-70
2022/02/07 00:12:11;;;;;;;0.40;0.30;;;4.00;99.90;;;;;;5075241;28;20254;-70
2022/02/07 00:14:39;;;;;;;0.40;0.30;;;3.90;99.90;;;;;;5075066;28;20229;-70
2022/02/07 00:17:07;;;;;;;0.40;0.22;;;3.90;99.90;;;;;;5075199;28;20213;-70
2022/02/07 00:19:33;;;;;;;2.05;0.40;;;3.90;99.90;;;;;;5075050;28;20231;-70
2022/02/07 00:22:02;;;;;;;0.40;0.20;;;3.80;99.90;;;;;;5074951;28;20232;-70
2022/02/07 00:24:29;;;;;;;0.75;0.30;;;3.90;99.90;;;;;;5074971;28;20245;-70
2022/02/07 00:26:55;;;;;;;0.30;0.30;;;3.80;99.90;;;;;;5074958;28;20297;-70
2022/02/07 00:29:22;;;;;;;0.40;0.40;;;3.90;99.90;;;;;;5074945;28;20675;-70
2022/02/07 00:31:50;;;;;;;1.58;0.93;;;3.90;99.90;;;;;;5074731;28;20301;-70
2022/02/07 00:34:17;;;;;;;0.50;0.50;;;4.10;99.90;;;;;;5074724;28;20227;-70
2022/02/07 00:36:44;;;;;;;0.40;0.40;;;4.10;99.90;;;;;;5074540;28;20742;-70
2022/02/07 00:39:22;;;;;;;3.63;0.68;;;4.30;99.90;;;;;;5074580;28;20250;-70
2022/02/07 00:41:55;;;;;;;0.43;0.30;;;4.30;99.90;;;;;;5074530;28;20191;-70
2022/02/07 00:44:21;;;;;;;0.50;0.20;;;4.40;99.90;;;;;;5074754;28;20222;-70
2022/02/07 00:46:57;;;;;;;1.85;0.30;;;4.40;99.90;;;;;;5074240;28;20687;-70
2022/02/07 00:49:24;;;;;;;0.60;0.50;;;4.40;99.90;;;;;;5074555;28;20206;-70
2022/02/07 00:51:51;;;;;;;0.30;0.30;;;4.30;99.90;;;;;;5074274;28;20217;-70
2022/02/07 00:54:18;;;;;;;0.82;0.60;;;4.30;99.90;;;;;;5074373;28;20222;-71
2022/02/07 00:56:44;;;;;;;0.70;0.30;;;4.20;99.90;;;;;;5074119;28;20241;-70
2022/02/07 00:59:11;;;;;;;1.95;0.38;;;4.20;99.90;;;;;;5074250;28;20223;-70
2022/02/07 01:01:38;;;;;;;0.40;0.35;;;4.30;99.90;;;;;;5074118;28;20202;-71
2022/02/07 01:04:07;;;;;;;0.40;0.32;;;4.30;99.90;;;;;;5074109;28;20293;-70
2022/02/07 01:06:33;;;;;;;0.60;0.60;;;4.30;99.90;;;;;;5074209;28;20242;-70
2022/02/07 01:12:06;;;;;;;0.40;0.40;;;4.40;99.90;;;;;;5073511;28;20198;-70
2022/02/07 01:14:47;;;;;;;0.95;0.40;;;4.40;99.90;;;;;;5073960;28;20218;-71
2022/02/07 01:23:31;;;;;;;0.70;0.40;;;4.50;99.90;;;;;;5132013;27;20531;-69
2022/02/07 01:53:40;;;;;;;0.63;0.50;;;4.80;99.90;;;;;;5131374;27;20650;-69
2022/02/07 01:56:09;;;;;;;0.47;0.30;;;4.90;99.90;;;;;;5131090;27;20221;-69
2022/02/07 01:58:36;;;;;;;0.30;0.30;;;4.90;99.90;;;;;;5131353;27;20205;-69
2022/02/07 02:01:03;;;;;;;0.73;0.40;;;4.90;99.90;;;;;;5131064;27;20225;-69
2022/02/07 02:03:30;;;;;;;0.70;0.30;;;4.90;99.90;;;;;;5131250;27;20207;-69
2022/02/07 02:05:57;;;;;;;0.57;0.57;;;5.00;99.90;;;;;;5131203;27;20308;-69
2022/02/07 02:08:24;;;;;;;2.05;0.50;;;5.00;99.90;;;;;;5131150;28;20292;-69
2022/02/07 02:10:55;;;;;;;0.52;0.50;;;5.10;99.90;;;;;;5130710;27;20295;-69
2022/02/07 02:13:36;;;;;;;1.00;0.80;;;5.00;99.90;;;;;;5131102;27;20215;-69
2022/02/07 02:16:10;;;;;;;1.63;0.60;;;5.10;99.90;;;;;;5131130;27;20311;-69
2022/02/07 02:37:52;;;;;;;0.70;0.70;;;5.20;99.90;;;;;;5109379;28;20663;-69
2022/02/07 02:46:03;;;;;;;0.98;0.70;;;5.20;99.90;;;;;;5074043;28;20267;-69
2022/02/07 02:48:30;;;;;;;1.88;0.80;;;5.20;99.90;;;;;;5097546;27;20239;-69
2022/02/07 02:51:06;;;;;;;1.65;0.70;;;5.20;99.90;;;;;;5116354;28;20227;-69
2022/02/07 02:53:33;;;;;;;0.95;0.77;;;5.10;99.90;;;;;;5116460;28;20675;-69
2022/02/07 02:56:01;;;;;;;2.58;1.05;;;4.90;99.90;;;;;;5116508;28;20221;-69
2022/02/07 02:58:28;;;;;;;0.88;0.50;;;4.90;99.90;;;;;;5116507;28;20224;-69
2022/02/07 03:00:55;;;;;;;0.60;0.60;;;4.70;99.90;;;;;;5116027;28;20205;-69
2022/02/07 03:03:22;;;;;;;1.02;0.70;;;4.60;99.90;;;;;;5116362;28;20296;-69
2022/02/07 03:05:50;;;;;;;2.45;0.55;;;4.70;99.90;;;;;;5116560;28;20623;-69
2022/02/07 03:08:19;;;;;;;0.95;0.85;;;4.80;99.90;;;;;;5116099;28;20726;-69
2022/02/07 03:10:57;;;;;;;1.52;0.90;;;4.90;99.90;;;;;;5115951;28;20201;-69
2022/02/07 03:13:48;;;;;;;0.50;0.50;;;5.00;99.90;;;;;;5116212;28;20197;-69
2022/02/07 03:19:01;;;;;;;0.80;0.70;;;4.90;99.90;;;;;;5116128;28;20281;-69
2022/02/07 03:21:28;;;;;;;2.65;1.00;;;5.00;99.90;;;;;;5115407;28;20227;-69
2022/02/07 03:23:55;;;;;;;3.65;1.02;;;5.00;99.90;;;;;;5116020;28;20296;-69
2022/02/07 03:26:22;;;;;;;1.20;0.77;;;5.00;99.90;;;;;;5115672;28;20262;-69
2022/02/07 03:28:51;;;;;;;1.23;0.93;;;5.00;99.90;;;;;;5115932;28;20236;-69
2022/02/07 03:31:18;;;;;;;1.20;0.80;;;5.00;99.90;;;;;;5115719;27;20205;-70
2022/02/07 03:33:45;;;;;;;0.80;0.80;;;5.10;99.90;;;;;;5115796;28;20201;-69
2022/02/07 03:36:13;;;;;;;2.97;1.42;;;5.20;99.90;;;;;;5115892;28;20225;-70
2022/02/07 03:38:41;;;;;;;4.35;2.15;;;5.20;99.90;;;;;;5115845;28;20659;-70
2022/02/07 03:41:08;;;;;;;2.08;1.05;;;5.20;99.90;;;;;;5115602;28;20293;-68
2022/02/07 03:43:35;;;;;;;2.05;0.82;;;5.10;99.90;;;;;;5115912;28;20202;-70
2022/02/07 03:46:04;;;;;;;0.40;0.40;;;4.80;99.90;;;;;;5114910;28;20217;-70
2022/02/07 03:48:31;;;;;;;1.02;0.30;;;3.60;99.90;;;;;;5115564;28;20204;-69
2022/02/07 03:50:58;;;;;;;1.48;0.50;;;3.30;99.90;;;;;;5115153;28;20659;-69
2022/02/07 03:53:25;;;;;;;0.40;0.40;;;3.20;99.90;;;;;;5115635;28;20204;-70
2022/02/07 03:55:52;;;;;;;0.73;0.52;;;3.10;99.90;;;;;;5115471;28;20221;-69
2022/02/07 03:58:21;;;;;;;0.50;0.50;;;3.00;99.90;;;;;;5115467;28;20738;-69
2022/02/07 04:00:48;;;;;;;0.50;0.38;;;3.10;99.90;;;;;;5115443;28;20228;-69
2022/02/07 04:03:17;;;;;;;0.40;0.40;;;3.00;99.90;;;;;;5115189;28;20324;-69
2022/02/07 04:05:48;;;;;;;0.55;0.55;;;3.00;99.90;;;;;;5114953;28;20221;-69
2022/02/07 04:08:18;;;;;;;0.82;0.50;;;3.00;99.90;;;;;;5115239;28;20300;-69
2022/02/07 04:10:56;;;;;;;0.60;0.55;;;3.10;99.90;;;;;;5114832;28;20659;-69
2022/02/07 04:13:28;;;;;;;0.82;0.55;;;3.00;99.90;;;;;;5115179;28;20304;-70
2022/02/07 04:15:56;;;;;;;0.65;0.50;;;3.10;99.90;;;;;;5114953;28;20232;-70
2022/02/07 04:18:26;;;;;;;0.55;0.52;;;3.10;99.90;;;;;;5115024;28;20617;-69
2022/02/07 04:20:53;;;;;;;0.65;0.50;;;3.10;99.90;;;;;;5114403;28;20301;-70
2022/02/07 04:23:21;;;;;;;2.05;0.60;;;3.10;99.90;;;;;;5114844;28;20226;-69
2022/02/07 04:25:47;;;;;;;0.70;0.60;;;3.10;99.90;;;;;;5114860;27;20228;-69
2022/02/07 04:28:15;;;;;;;1.40;0.68;;;3.20;99.90;;;;;;5114768;27;20746;-69
2022/02/07 04:30:42;;;;;;;0.93;0.60;;;3.20;99.90;;;;;;5114468;28;20201;-69
2022/02/07 04:33:09;;;;;;;1.40;0.60;;;3.20;99.90;;;;;;5114737;28;20193;-70
2022/02/07 04:35:37;;;;;;;1.20;0.70;;;3.20;99.90;;;;;;5114652;28;20231;-69
2022/02/07 04:38:04;;;;;;;0.40;0.40;;;3.20;99.90;;;;;;5114609;28;20297;-70
2022/02/07 04:40:31;;;;;;;1.20;0.70;;;3.30;99.90;;;;;;5114388;28;20612;-69
2022/02/07 04:42:58;;;;;;;1.02;0.70;;;3.20;99.90;;;;;;5114461;28;20575;-69
2022/02/07 04:45:46;;;;;;;0.60;0.60;;;3.20;99.90;;;;;;5114168;28;20231;-69
2022/02/07 04:51:16;;;;;;;1.15;0.93;;;3.20;99.90;;;;;;5114163;28;20200;-69
2022/02/07 04:54:06;;;;;;;0.30;0.30;;;3.30;99.90;;;;;;5114339;28;20193;-69
2022/02/07 04:59:21;;;;;;;0.80;0.80;;;3.20;99.90;;;;;;5114398;28;20258;-69
2022/02/07 05:01:51;;;;;;;1.20;0.88;;;3.30;99.90;;;;;;5114130;28;20237;-69
2022/02/07 05:04:27;;;;;;;2.15;0.63;;;3.30;99.90;;;;;;5114256;28;20282;-69
2022/02/07 05:15:08;;;;;;;2.17;1.55;;;3.20;99.90;;;;;;5114043;28;20236;-69
2022/02/07 05:17:38;;;;;;;1.95;0.82;;;3.30;99.90;;;;;;5113863;28;20211;-69
2022/02/07 05:20:06;;;;;;;1.73;0.57;;;3.20;99.90;;;;;;5113670;28;20682;-68
2022/02/07 05:22:35;;;;;;;1.88;0.85;;;3.30;99.90;;;;;;5113556;28;20227;-69
2022/02/07 05:25:02;;;;;;;0.55;0.50;;;3.30;99.90;;;;;;5113962;28;20575;-69
2022/02/07 05:27:29;;;;;;;1.63;0.73;;;3.30;99.90;;;;;;5114445;28;20566;-69
2022/02/07 05:29:56;;;;;;;1.67;1.10;;;3.40;99.90;;;;;;5113817;28;20217;-69
2022/02/07 05:32:23;;;;;;;3.28;1.10;;;3.40;99.90;;;;;;5113928;28;20229;-69
2022/02/07 05:34:51;;;;;;;4.68;0.70;;;3.30;99.90;;;;;;5114158;28;20304;-69
2022/02/07 05:37:18;;;;;;;2.95;0.65;;;3.40;99.90;;;;;;5113558;28;20258;-69
2022/02/07 05:39:51;;;;;;;2.05;1.13;;;3.40;99.90;;;;;;5113729;28;20564;-68
2022/02/07 05:42:18;;;;;;;1.85;0.70;;;3.40;99.90;;;;;;5113772;28;20548;-69
2022/02/07 05:44:46;;;;;;;1.80;1.00;;;3.40;99.90;;;;;;5113777;28;20274;-69
2022/02/07 05:47:14;;;;;;;2.47;1.00;;;3.50;99.90;;;;;;5113822;28;20212;-69
2022/02/07 05:49:41;;;;;;;3.58;0.80;;;3.50;99.90;;;;;;5113569;28;20206;-68
2022/02/07 05:52:08;;;;;;;1.17;0.80;;;3.50;99.90;;;;;;5113763;28;20297;-69
2022/02/07 05:54:35;;;;;;;2.55;1.30;;;3.50;99.90;;;;;;5113664;28;20217;-69
2022/02/07 05:57:04;;;;;;;1.25;0.68;;;3.60;99.90;;;;;;5113742;28;20233;-69
2022/02/07 05:59:31;;;;;;;5.65;1.25;;;3.60;99.90;;;;;;5113703;28;20600;-69
2022/02/07 06:01:57;;;;;;;3.38;1.00;;;3.60;99.90;;;;;;5113422;28;20571;-69
2022/02/07 06:04:24;;;;;;;1.55;0.80;;;3.70;99.90;;;;;;5113526;28;20228;-69
2022/02/07 06:06:51;;;;;;;1.88;0.90;;;3.70;99.90;;;;;;5113309;28;20206;-69
2022/02/07 06:09:18;;;;;;;2.72;1.30;;;3.70;99.90;;;;;;5116526;28;20208;-69
2022/02/07 06:11:45;;;;;;;2.85;1.40;;;3.70;99.90;;;;;;5117350;28;20205;-69
2022/02/07 06:14:13;;;;;;;1.42;1.15;;;3.70;99.90;;;;;;5117196;28;20289;-69
2022/02/07 06:16:40;;;;;;;3.78;1.65;;;3.70;99.90;;;;;;5117441;28;20201;-69
2022/02/07 06:19:07;;;;;;;1.35;0.90;;;3.70;99.90;;;;;;5117186;28;20208;-69
2022/02/07 06:21:34;;;;;;;3.45;1.17;;;3.70;99.90;;;;;;5116937;28;20215;-69
2022/02/07 06:24:02;;;;;;;2.63;1.30;;;3.70;99.90;;;;;;5117088;28;20297;-69
2022/02/07 06:26:29;;;;;;;1.77;1.65;;;3.80;99.90;;;;;;5117284;28;20201;-69
2022/02/07 06:28:56;;;;;;;2.63;1.20;;;3.90;99.90;;;;;;5117143;28;20209;-69
2022/02/07 06:31:25;;;;;;;2.05;1.00;;;3.90;99.90;;;;;;5116698;28;20201;-69
2022/02/07 06:33:52;;;;;;;4.50;2.03;;;4.00;99.90;;;;;;5117119;28;20236;-69
2022/02/07 06:36:20;;;;;;;1.02;0.93;;;4.00;99.90;;;;;;5117085;27;20224;-69
2022/02/07 06:38:47;;;;;;;1.65;1.10;;;4.00;99.90;;;;;;5116772;28;20375;-69
2022/02/07 06:41:14;;;;;;;2.00;1.20;;;4.10;99.90;;;;;;5116885;28;20212;-69
2022/02/07 06:43:41;;;;;;;0.98;0.75;;;4.10;99.90;;;;;;5116837;27;20686;-69
2022/02/07 06:46:08;;;;;;;3.65;1.30;;;4.00;99.90;;;;;;5116743;28;20326;-69
2022/02/07 06:48:36;;;;;;;2.20;1.50;;;4.00;99.90;;;;;;5116786;28;20201;-69
2022/02/07 06:51:04;;;;;;;3.08;1.00;;;4.00;99.90;;;;;;5116716;28;20608;-69
2022/02/07 06:53:30;;;;;;;2.92;1.33;;;3.90;99.90;;;;;;5116821;28;20199;-69
2022/02/07 06:55:57;;;;;;;2.80;1.40;;;4.00;99.90;;;;;;5116655;27;20312;-69
2022/02/07 06:58:24;;;;;;;6.75;1.75;;;4.00;99.90;;;;;;5116395;28;20201;-69
2022/02/07 07:00:51;;;;;;;5.00;1.17;;;4.00;99.90;;;;;;5116167;28;20288;-69
2022/02/07 07:03:19;;;;;;;3.42;0.98;;;4.10;99.90;;;;;;5116367;28;20226;-69
2022/02/07 07:05:49;;;;;;;1.15;1.02;;;4.10;99.90;;;;;;5116479;28;20257;-69
2022/02/07 07:08:16;;;;;;;3.25;1.10;;;4.10;99.90;;;;;;5116370;28;20205;-69
2022/02/07 07:10:44;;;;;;;1.80;1.10;;;4.10;99.90;;;;;;5116181;28;20212;-69
2022/02/07 07:13:14;;;;;;;2.08;1.30;;;4.20;99.90;;;;;;5116342;28;20551;-69
2022/02/07 07:15:47;;;;;;;2.03;1.30;;;4.20;99.90;;;;;;5116844;28;20224;-70
2022/02/07 07:18:14;;;;;;;2.45;1.50;;;4.20;99.90;;;;;;5116365;28;20233;-69
2022/02/07 07:20:40;;;;;;;3.60;1.17;;;4.30;99.90;;;;;;5115713;28;20201;-70
2022/02/07 07:23:09;;;;;;;2.30;1.00;;;4.30;99.90;;;;;;5116097;28;20225;-69
2022/02/07 07:25:37;;;;;;;2.78;1.20;;;4.30;99.90;;;;;;5116041;28;20228;-70
2022/02/07 07:28:06;;;;;;;2.72;1.45;;;4.30;99.90;;;;;;5116252;28;20205;-70
2022/02/07 07:30:37;;;;;;;2.58;1.00;;;4.30;99.90;;;;;;5116057;28;20570;-70
2022/02/07 07:33:08;;;;;;;2.15;1.30;;;4.30;99.90;;;;;;5116187;28;20208;-69
2022/02/07 07:35:35;;;;;;;2.63;1.35;;;4.30;99.90;;;;;;5116124;28;20302;-70
2022/02/07 07:38:02;;;;;;;7.20;3.67;;;4.30;99.90;;;;;;5116034;28;20223;-69
2022/02/07 07:40:30;;;;;;;2.70;1.52;;;4.30;99.90;;;;;;5115749;28;20201;-70
2022/02/07 07:42:57;;;;;;;1.20;1.10;;;4.20;99.90;;;;;;5115646;28;20316;-70
2022/02/07 07:45:30;;;;;;;4.35;1.50;;;4.30;99.90;;;;;;5115761;28;20231;-69
2022/02/07 07:48:04;;;;;;;3.50;1.20;;;4.20;99.90;;;;;;5115547;28;20216;-70
2022/02/07 07:50:38;;;;;;;3.90;1.25;;;4.20;99.90;;;;;;5115444;28;20206;-69
2022/02/07 07:53:14;;;;;;;1.83;0.93;;;4.20;99.90;;;;;;5115528;28;20202;-70
2022/02/07 08:04:00;;;;;;;4.53;1.65;;;4.00;99.90;;;;;;5104293;28;20217;-69
2022/02/07 08:06:30;;;;;;;3.30;1.77;;;4.00;99.90;;;;;;5114978;28;20292;-70
2022/02/07 08:09:19;;;;;;;3.67;1.13;;;4.00;99.90;;;;;;5115225;27;20205;-69
2022/02/07 08:11:47;;;;;;;2.78;1.42;;;4.00;99.90;;;;;;5114929;28;20248;-70
2022/02/07 08:14:14;;;;;;;6.10;3.30;;;4.10;99.90;;;;;;5115091;28;20257;-69
2022/02/07 08:16:41;;;;;;;1.88;1.23;;;4.10;99.90;;;;;;5115191;28;20202;-69
2022/02/07 08:19:08;;;;;;;1.90;0.98;;;4.10;99.90;;;;;;5115012;28;20296;-69
2022/02/07 08:21:35;;;;;;;3.03;1.60;;;4.20;99.90;;;;;;5114653;28;20220;-70
2022/02/07 08:24:02;;;;;;;2.60;1.50;;;4.20;99.90;;;;;;5114728;28;20232;-69
2022/02/07 08:26:29;;;;;;;5.70;2.30;;;4.20;99.90;;;;;;5114899;28;20581;-70
2022/02/07 08:28:57;;;;;;;2.58;1.10;;;4.30;99.90;;;;;;5115090;28;20197;-70
2022/02/07 08:31:24;;;;;;;2.38;1.02;;;4.40;99.90;;;;;;5114100;28;20206;-70
2022/02/07 08:33:51;;;;;;;3.80;1.48;;;4.30;99.90;;;;;;5114743;28;20205;-70
2022/02/07 08:36:18;;;;;;;2.90;1.67;;;4.40;99.90;;;;;;5114705;28;20227;-70
2022/02/07 08:38:45;;;;;;;3.53;1.65;;;4.50;99.90;;;;;;5114658;27;20201;-70
2022/02/07 08:41:12;;;;;;;1.98;1.15;;;4.60;99.90;;;;;;5114181;28;20201;-70
2022/02/07 08:43:39;;;;;;;2.53;1.25;;;4.60;99.90;;;;;;5114247;28;20224;-69
2022/02/07 08:46:08;;;;;;;4.10;1.70;;;4.50;99.90;;;;;;5114272;28;20228;-70
2022/02/07 08:48:35;;;;;;;3.42;1.50;;;4.60;99.90;;;;;;5114461;28;20254;-69
2022/02/07 08:51:04;;;;;;;2.53;1.15;;;4.50;99.90;;;;;;5114062;28;20201;-69
2022/02/07 08:53:36;;;;;;;2.47;1.00;;;4.60;99.90;;;;;;5114083;28;20656;-69
2022/02/07 08:56:04;;;;;;;6.88;1.50;;;4.50;99.90;;;;;;5114364;28;20661;-69
2022/02/07 08:58:33;;;;;;;3.20;2.10;;;4.70;99.90;;;;;;5114290;28;20221;-69
2022/02/07 09:01:07;;;;;;;6.15;2.47;;;4.80;99.90;;;;;;5113995;28;20205;-69
2022/02/07 09:06:33;;;;;;;4.15;1.30;;;5.20;99.90;;;;;;5110316;28;20229;-69
2022/02/07 09:09:09;;;;;;;6.38;1.70;;;5.20;99.90;;;;;;5114318;28;20574;-70
2022/02/07 09:11:38;;;;;;;4.88;2.13;;;5.20;99.90;;;;;;5114028;27;20204;-69
2022/02/07 09:14:11;;;;;;;2.28;1.00;;;5.30;99.90;;;;;;5114048;28;20193;-69
2022/02/07 09:16:39;;;;;;;3.28;1.80;;;5.40;99.90;;;;;;5113964;28;20182;-70
2022/02/07 09:19:08;;;;;;;2.17;1.63;;;5.60;99.90;;;;;;5113917;28;20204;-69
2022/02/07 09:21:35;;;;;;;3.33;1.40;;;5.70;99.90;;;;;;5113711;28;20575;-70
2022/02/07 09:24:03;;;;;;;4.05;1.60;;;5.70;99.90;;;;;;5113802;28;20312;-69
2022/02/07 09:26:30;;;;;;;5.22;1.35;;;5.70;99.90;;;;;;5113815;28;20690;-70
2022/02/07 09:28:57;;;;;;;2.30;1.40;;;5.70;99.90;;;;;;5114127;28;20207;-69
2022/02/07 09:31:24;;;;;;;6.70;1.75;;;5.60;99.90;;;;;;5113924;28;20206;-70
2022/02/07 09:33:53;;;;;;;2.45;1.52;;;5.50;99.90;;;;;;5113996;28;20233;-70
2022/02/07 09:36:23;;;;;;;3.00;1.70;;;5.50;99.90;;;;;;5113866;28;20221;-69
2022/02/07 09:38:50;;;;;;;4.00;1.80;;;5.60;99.90;;;;;;5113846;28;20300;-69
2022/02/07 09:41:20;;;;;;;6.45;1.90;;;5.70;99.90;;;;;;5113755;28;20201;-70
2022/02/07 09:43:49;;;;;;;3.47;1.40;;;5.70;99.90;;;;;;5116250;28;20218;-69
2022/02/07 09:46:22;;;;;;;2.75;1.30;;;5.70;99.90;;;;;;5117926;28;20229;-69
2022/02/07 09:48:52;;;;;;;3.70;1.65;;;5.80;99.90;;;;;;5118054;28;20703;-69
2022/02/07 09:51:20;;;;;;;3.63;1.60;;;5.80;99.90;;;;;;5117702;28;20205;-69
2022/02/07 09:53:47;;;;;;;3.40;1.60;;;5.70;99.90;;;;;;5117866;28;20395;-69
2022/02/07 09:56:15;;;;;;;5.95;1.75;;;5.70;99.90;;;;;;5117605;28;20256;-70
2022/02/07 09:58:42;;;;;;;1.85;1.50;;;5.70;99.90;;;;;;5117862;28;20208;-69
2022/02/07 10:01:16;;;;;;;6.28;2.10;;;5.90;99.90;;;;;;5117494;27;20197;-69
2022/02/07 10:03:51;;;;;;;6.60;2.10;;;5.90;99.90;;;;;;5117876;28;20213;-69
2022/02/07 10:06:32;;;;;;;4.15;1.42;;;5.90;99.90;;;;;;5117542;28;20264;-69
2022/02/07 10:09:17;;;;;;;5.50;2.00;;;6.00;99.90;;;;;;5117846;28;20212;-70
2022/02/07 10:11:59;;;;;;;9.27;2.28;;;6.10;99.90;;;;;;5117419;28;20288;-69
2022/02/07 10:14:32;;;;;;;3.72;1.52;;;6.20;99.90;;;;;;5117365;28;20213;-69
2022/02/07 10:17:17;;;;;;;2.22;1.50;;;6.20;99.90;;;;;;5117461;28;20201;-70
2022/02/07 10:19:57;;;;;;;5.13;1.40;;;6.30;99.90;;;;;;5117241;28;20205;-69
2022/02/07 10:22:55;;;;;;;4.03;1.95;;;6.20;99.90;;;;;;5117116;28;20205;-70
2022/02/07 10:39:26;;;;;;;1.67;1.33;;;6.40;99.90;;;;;;5117343;28;20200;-69
2022/02/07 10:42:29;;;;;;;1.52;1.10;;;6.50;99.90;;;;;;5116641;28;20246;-69
2022/02/07 10:44:57;;;;;;;2.83;1.20;;;6.40;99.90;;;;;;5116342;28;20286;-70
2022/02/07 10:47:27;;;;;;;6.45;1.70;;;6.30;99.90;;;;;;5117479;28;20528;-70
2022/02/07 10:50:03;;;;;;;4.97;2.00;;;6.30;99.90;;;;;;5116556;27;20259;-69
2022/02/07 10:52:48;;;;;;;2.10;1.70;;;6.30;99.90;;;;;;5116767;28;20201;-70
2022/02/07 10:55:25;;;;;;;4.80;1.70;;;6.20;99.90;;;;;;5116153;28;20225;-70
2022/02/07 10:57:54;;;;;;;5.07;2.15;;;6.20;99.90;;;;;;5116464;28;20669;-69
2022/02/07 11:00:27;;;;;;;2.67;1.33;;;6.10;99.90;;;;;;5116598;28;20616;-70
2022/02/07 11:03:02;;;;;;;4.10;1.60;;;6.20;99.90;;;;;;5116624;28;20658;-70
2022/02/07 11:05:35;;;;;;;3.70;1.60;;;6.30;99.90;;;;;;5116725;28;20350;-70
2022/02/07 11:08:19;;;;;;;1.98;1.10;;;6.50;99.90;;;;;;5116581;28;20240;-70
2022/02/07 11:14:01;;;;;;;3.08;1.30;;;6.70;99.90;;;;;;5091591;28;20522;-70
2022/02/07 11:16:39;;;;;;;1.60;1.10;;;6.70;99.90;;;;;;5070941;28;20297;-70
2022/02/07 11:19:14;;;;;;;1.85;1.20;;;6.70;99.90;;;;;;5070891;28;20579;-69
2022/02/07 11:22:11;;;;;;;2.58;0.88;;;6.70;99.90;;;;;;5070698;28;20296;-69
2022/02/07 11:24:58;;;;;;;2.92;1.25;;;6.80;99.90;;;;;;5070821;28;20595;-69
2022/02/07 11:27:38;;;;;;;4.55;1.40;;;6.80;99.60;;;;;;5070994;28;20241;-69
2022/02/07 11:30:10;;;;;;;3.08;0.98;;;6.90;99.90;;;;;;5070471;28;20209;-69
2022/02/07 11:32:53;;;;;;;1.83;1.35;;;6.90;99.00;;;;;;5070572;28;20226;-69
2022/02/07 11:35:22;;;;;;;8.07;3.75;;;6.80;99.70;;;;;;5070448;28;20260;-69
2022/02/07 11:37:53;;;;;;;3.10;1.60;;;6.90;99.90;;;;;;5070540;28;20211;-69
2022/02/07 11:40:28;;;;;;;3.47;1.80;;;6.80;99.70;;;;;;5070306;28;20224;-69
2022/02/07 11:43:09;;;;;;;2.17;1.50;;;6.50;99.50;;;;;;5070357;28;20205;-68
2022/02/07 11:45:52;;;;;;;2.53;1.20;;;6.50;99.70;;;;;;5070238;28;20226;-69
2022/02/07 11:48:21;;;;;;;5.28;1.40;;;6.40;99.50;;;;;;5070252;28;20203;-69
2022/02/07 11:50:48;;;;;;;5.38;1.50;;;6.30;99.90;;;;;;5070093;28;20202;-69
2022/02/07 11:53:16;;;;;;;3.25;1.88;;;6.30;99.90;;;;;;5070106;28;20319;-70
2022/02/07 11:55:47;;;;;;;2.85;1.30;;;6.40;99.90;;;;;;5070177;28;20658;-69
2022/02/07 11:58:22;;;;;;;2.30;1.20;;;6.40;99.50;;;;;;5069898;28;20210;-69
2022/02/07 12:00:58;;;;;;;3.20;1.30;;;6.40;99.60;;;;;;5069683;28;20687;-69
2022/02/07 12:03:26;;;;;;;3.17;1.73;;;6.50;99.80;;;;;;5069859;28;20207;-69
2022/02/07 12:05:57;;;;;;;4.03;1.58;;;6.50;99.90;;;;;;5069824;28;20219;-69
2022/02/07 12:08:26;;;;;;;3.38;1.10;;;6.50;99.70;;;;;;5069688;28;20205;-69
2022/02/07 12:11:11;;;;;;;1.23;0.73;;;6.50;99.40;;;;;;5069428;28;20206;-69
2022/02/07 12:13:41;;;;;;;4.15;1.60;;;6.50;99.50;;;;;;5069309;28;20226;-69
2022/02/07 12:16:17;;;;;;;3.63;1.20;;;6.40;99.90;;;;;;5069348;28;20705;-69
2022/02/07 12:18:47;;;;;;;3.28;1.70;;;6.50;99.80;;;;;;5069620;28;20210;-69
2022/02/07 12:21:17;;;;;;;2.92;1.30;;;6.50;99.90;;;;;;5069241;28;20576;-69
2022/02/07 12:23:44;;;;;;;2.15;1.30;;;6.40;99.90;;;;;;5063261;28;20286;-69
2022/02/07 12:26:16;;;;;;;3.15;1.40;;;6.40;99.90;;;;;;5056644;28;20223;-69
2022/02/07 12:28:46;;;;;;;3.58;1.65;;;6.40;99.70;;;;;;5056257;28;20257;-68
2022/02/07 12:31:19;;;;;;;6.32;1.60;;;6.50;99.90;;;;;;5056044;28;20624;-69
2022/02/07 12:33:54;;;;;;;4.70;1.20;;;6.50;99.90;;;;;;5056025;28;20704;-69
2022/02/07 12:36:22;;;;;;;4.15;1.50;;;6.50;99.50;;;;;;5055888;28;20280;-69
2022/02/07 12:38:51;;;;;;;5.38;2.08;;;6.50;99.80;;;;;;5056069;28;20228;-69
2022/02/07 12:41:19;;;;;;;0.80;0.80;;;6.60;99.70;;;;;;5055889;28;20234;-69
2022/02/07 12:43:50;;;;;;;2.28;1.58;;;6.50;99.60;;;;;;5055909;28;20210;-68
2022/02/07 12:46:21;;;;;;;3.67;2.10;;;6.50;99.90;;;;;;5055924;28;20231;-69
2022/02/07 12:48:56;;;;;;;2.45;1.80;;;6.60;99.90;;;;;;5055825;28;20298;-69
2022/02/07 12:51:25;;;;;;;3.35;1.50;;;6.70;99.90;;;;;;5055673;28;20243;-69
2022/02/07 12:53:53;;;;;;;4.68;1.92;;;6.70;99.90;;;;;;5055551;28;20701;-69
2022/02/07 12:56:21;;;;;;;1.70;0.80;;;6.90;99.90;;;;;;5055721;28;20558;-69
2022/02/07 12:58:49;;;;;;;6.13;2.10;;;6.90;99.90;;;;;;5055663;28;20207;-69
2022/02/07 13:01:26;;;;;;;3.65;1.50;;;6.80;99.90;;;;;;5055279;28;20588;-69
2022/02/07 13:03:56;;;;;;;3.47;1.80;;;6.80;99.90;;;;;;5055626;28;20209;-69
2022/02/07 13:06:35;;;;;;;5.35;1.75;;;6.90;99.90;;;;;;5055627;28;20198;-69
2022/02/07 13:09:11;;;;;;;3.65;1.52;;;6.90;99.90;;;;;;5055594;28;20233;-69
2022/02/07 13:11:46;;;;;;;3.60;1.90;;;6.90;99.90;;;;;;5055130;28;20219;-70
2022/02/07 13:14:14;;;;;;;3.28;1.75;;;7.00;99.90;;;;;;5055373;28;20213;-69
2022/02/07 13:16:42;;;;;;;7.25;3.00;;;6.90;99.90;;;;;;5055444;28;20294;-69
2022/02/07 13:19:14;;;;;;;3.25;1.50;;;6.90;99.90;;;;;;5055184;28;20298;-69
2022/02/07 13:21:43;;;;;;;3.40;2.05;;;6.70;99.90;;;;;;5055044;28;20712;-69
2022/02/07 13:24:15;;;;;;;2.80;1.70;;;6.50;99.90;;;;;;5054870;28;20573;-70
2022/02/07 13:26:47;;;;;;;4.88;2.20;;;6.50;99.90;;;;;;5055253;28;20203;-69
2022/02/07 13:29:21;;;;;;;1.40;1.30;;;6.40;99.90;;;;;;5055152;28;20572;-69
2022/02/07 13:32:00;;;;;;;6.45;1.95;;;6.40;99.90;;;;;;5054767;28;20680;-69
2022/02/07 13:34:29;;;;;;;3.92;2.25;;;6.40;99.90;;;;;;5054762;28;20309;-69
2022/02/07 13:37:07;;;;;;;4.38;1.73;;;6.40;99.90;;;;;;5054221;28;20302;-69
2022/02/07 13:39:52;;;;;;;2.70;1.35;;;6.50;99.90;;;;;;5054769;28;20692;-69
2022/02/07 13:42:25;;;;;;;1.95;1.05;;;6.60;99.90;;;;;;5054937;28;20557;-69
2022/02/07 13:44:53;;;;;;;3.35;2.10;;;6.50;99.90;;;;;;5054790;28;20223;-69
2022/02/07 13:47:22;;;;;;;2.85;1.80;;;6.60;99.90;;;;;;5054465;28;20217;-69
2022/02/07 13:49:57;;;;;;;5.30;2.05;;;6.60;99.90;;;;;;5054884;28;20204;-69
2022/02/07 13:52:28;;;;;;;4.63;2.08;;;6.80;99.90;;;;;;5054831;28;20227;-70
2022/02/07 13:55:16;;;;;;;3.15;1.70;;;6.90;99.90;;;;;;5054625;28;20224;-69
2022/02/07 13:57:51;;;;;;;4.65;2.10;;;7.00;99.90;;;;;;5054660;28;20207;-69
2022/02/07 14:00:20;;;;;;;7.53;3.28;;;6.90;99.90;;;;;;5054241;28;20576;-69
2022/02/07 14:02:48;;;;;;;5.57;2.22;;;6.90;99.90;;;;;;5054423;28;20203;-69
2022/02/07 14:05:18;;;;;;;6.00;2.15;;;6.80;99.90;;;;;;5054213;28;20688;-69
2022/02/07 14:07:53;;;;;;;1.60;1.40;;;6.80;99.90;;;;;;5054418;28;20551;-69
2022/02/07 14:10:22;;;;;;;2.50;2.10;;;6.80;99.90;;;;;;5054174;28;20264;-69
2022/02/07 14:12:51;;;;;;;3.65;1.50;;;6.80;99.90;;;;;;5053924;28;20230;-69
2022/02/07 14:15:18;;;;;;;3.83;1.58;;;6.80;99.90;;;;;;5054210;28;20257;-69
2022/02/07 14:17:46;;;;;;;4.28;1.98;;;6.90;99.90;;;;;;5054343;28;20199;-69
2022/02/07 14:20:19;;;;;;;4.53;1.83;;;7.00;99.90;;;;;;5053897;28;20215;-69
2022/02/07 14:22:45;;;;;;;3.40;1.73;;;7.00;99.90;;;;;;5053951;28;20248;-69
2022/02/07 14:25:13;;;;;;;3.00;2.20;;;6.90;99.90;;;;;;5054066;28;20223;-69
2022/02/07 14:27:41;;;;;;;6.75;4.30;;;6.90;99.90;;;;;;5054078;28;20207;-69
2022/02/07 14:30:09;;;;;;;3.75;2.25;;;6.80;99.90;;;;;;5053835;28;20211;-69
2022/02/07 14:32:35;;;;;;;3.83;2.05;;;6.80;99.90;;;;;;5054029;28;20225;-69
2022/02/07 14:35:03;;;;;;;2.95;2.10;;;6.90;99.90;;;;;;5053729;28;20231;-69
2022/02/07 14:37:31;;;;;;;3.70;2.72;;;6.90;99.90;;;;;;5053881;28;20592;-70
2022/02/07 14:39:57;;;;;;;1.75;1.00;;;6.90;99.90;;;;;;5053436;28;20298;-69
2022/02/07 14:42:24;;;;;;;2.38;1.88;;;6.90;99.90;;;;;;5053848;28;20218;-69
2022/02/07 14:45:00;;;;;;;4.38;1.27;;;6.80;99.90;;;;;;5053706;28;20230;-69
2022/02/07 14:47:41;;;;;;;3.65;1.77;;;6.80;99.90;;;;;;5053462;28;20192;-69
2022/02/07 14:50:09;;;;;;;2.95;1.95;;;6.90;99.90;;;;;;5053451;28;20203;-69
2022/02/07 14:52:37;;;;;;;4.40;2.40;;;6.90;99.90;;;;;;5053413;28;20657;-69
2022/02/07 14:55:06;;;;;;;2.97;2.00;;;6.90;99.90;;;;;;5053409;28;20738;-69
2022/02/07 14:57:32;;;;;;;2.78;1.65;;;7.00;99.90;;;;;;5053604;28;20294;-69
2022/02/07 14:59:59;;;;;;;4.72;1.85;;;7.00;99.90;;;;;;5053306;28;20225;-69
2022/02/07 15:02:27;;;;;;;4.65;2.30;;;7.00;99.90;;;;;;5053510;28;20206;-69